sensor_id;sensor_type;location;lat;lon;timestamp;temperature;humidity
51579;DHT22;47998;53.242;6.386;2023-05-31T00:00:07;8.50;99.90
51579;DHT22;47998;53.242;6.386;2023-05-31T00:02:33;8.50;99.90
51579;DHT22;47998;53.242;6.386;2023-05-31T00:04:59;8.50;99.90
51579;DHT22;47998;53.242;6.386;2023-05-31T00:07:25;8.60;99.90
51579;DHT22;47998;53.242;6.386;2023-05-31T00:09:50;8.60;99.90
51579;DHT22;47998;53.242;6.386;2023-05-31T00:12:16;8.50;99.90
51579;DHT22;47998;53.242;6.386;2023-05-31T00:14:42;8.40;99.90
51579;DHT22;47998;53.242;6.386;2023-05-31T00:17:07;8.30;99.90
51579;DHT22;47998;53.242;6.386;2023-05-31T00:19:33;8.40;99.90
51579;DHT22;47998;53.242;6.386;2023-05-31T00:21:59;8.40;99.90
51579;DHT22;47998;53.242;6.386;2023-05-31T00:24:24;8.40;99.90
51579;DHT22;47998;53.242;6.386;2023-05-31T00:26:50;8.50;99.90
51579;DHT22;47998;53.242;6.386;2023-05-31T00:29:16;8.50;99.90
51579;DHT22;47998;53.242;6.386;2023-05-31T00:31:41;8.50;99.90
51579;DHT22;47998;53.242;6.386;2023-05-31T00:34:07;8.50;99.90
51579;DHT22;47998;53.242;6.386;2023-05-31T00:36:35;8.50;99.90
51579;DHT22;47998;53.242;6.386;2023-05-31T00:39:01;8.50;99.90
51579;DHT22;47998;53.242;6.386;2023-05-31T00:41:27;8.50;99.90
51579;DHT22;47998;53.242;6.386;2023-05-31T00:43:53;8.50;99.90
51579;DHT22;47998;53.242;6.386;2023-05-31T00:46:27;8.50;99.90
51579;DHT22;47998;53.242;6.386;2023-05-31T00:48:54;8.50;99.90
51579;DHT22;47998;53.242;6.386;2023-05-31T00:51:21;8.60;99.90
51579;DHT22;47998;53.242;6.386;2023-05-31T00:53:47;8.50;99.90
51579;DHT22;47998;53.242;6.386;2023-05-31T00:56:13;8.50;99.90
51579;DHT22;47998;53.242;6.386;2023-05-31T00:58:41;8.50;99.90
51579;DHT22;47998;53.242;6.386;2023-05-31T01:01:07;8.50;99.90
51579;DHT22;47998;53.242;6.386;2023-05-31T01:03:34;8.50;99.90
51579;DHT22;47998;53.242;6.386;2023-05-31T01:06:00;8.50;99.90
51579;DHT22;47998;53.242;6.386;2023-05-31T01:08:26;8.50;99.90
51579;DHT22;47998;53.242;6.386;2023-05-31T01:10:53;8.50;99.90
51579;DHT22;47998;53.242;6.386;2023-05-31T01:13:28;8.50;99.90
51579;DHT22;47998;53.242;6.386;2023-05-31T01:15:59;8.50;99.90
51579;DHT22;47998;53.242;6.386;2023-05-31T01:18:47;8.50;99.90
51579;DHT22;47998;53.242;6.386;2023-05-31T01:21:17;8.50;99.90
51579;DHT22;47998;53.242;6.386;2023-05-31T01:24:13;8.50;99.90
51579;DHT22;47998;53.242;6.386;2023-05-31T01:26:49;8.50;99.90
51579;DHT22;47998;53.242;6.386;2023-05-31T01:29:20;8.40;99.90
51579;DHT22;47998;53.242;6.386;2023-05-31T01:31:48;8.40;99.90
51579;DHT22;47998;53.242;6.386;2023-05-31T01:34:14;8.40;99.90
51579;DHT22;47998;53.242;6.386;2023-05-31T01:36:40;8.30;99.90
51579;DHT22;47998;53.242;6.386;2023-05-31T01:39:06;8.30;99.90
51579;DHT22;47998;53.242;6.386;2023-05-31T01:41:36;8.30;99.90
51579;DHT22;47998;53.242;6.386;2023-05-31T01:44:04;8.40;99.90
51579;DHT22;47998;53.242;6.386;2023-05-31T01:46:31;8.30;99.90
51579;DHT22;47998;53.242;6.386;2023-05-31T01:48:56;8.30;99.90
51579;DHT22;47998;53.242;6.386;2023-05-31T01:51:24;8.20;99.90
51579;DHT22;47998;53.242;6.386;2023-05-31T01:53:50;8.30;99.90
51579;DHT22;47998;53.242;6.386;2023-05-31T01:56:18;8.20;99.90
51579;DHT22;47998;53.242;6.386;2023-05-31T01:58:45;8.10;99.90
51579;DHT22;47998;53.242;6.386;2023-05-31T02:01:14;8.10;99.90
51579;DHT22;47998;53.242;6.386;2023-05-31T02:03:42;8.10;99.90
51579;DHT22;47998;53.242;6.386;2023-05-31T02:06:08;8.10;99.90
51579;DHT22;47998;53.242;6.386;2023-05-31T02:08:33;8.00;99.90
51579;DHT22;47998;53.242;6.386;2023-05-31T02:10:59;8.00;99.90
51579;DHT22;47998;53.242;6.386;2023-05-31T02:13:26;7.90;99.90
51579;DHT22;47998;53.242;6.386;2023-05-31T02:15:53;7.90;99.90
51579;DHT22;47998;53.242;6.386;2023-05-31T02:18:19;7.80;99.90
51579;DHT22;47998;53.242;6.386;2023-05-31T02:20:45;7.80;99.90
51579;DHT22;47998;53.242;6.386;2023-05-31T02:23:11;7.70;99.90
51579;DHT22;47998;53.242;6.386;2023-05-31T02:25:37;7.70;99.90
51579;DHT22;47998;53.242;6.386;2023-05-31T02:28:02;7.60;99.90
51579;DHT22;47998;53.242;6.386;2023-05-31T02:30:30;7.50;99.90
51579;DHT22;47998;53.242;6.386;2023-05-31T02:32:56;7.50;99.90
51579;DHT22;47998;53.242;6.386;2023-05-31T02:35:21;7.50;99.90
51579;DHT22;47998;53.242;6.386;2023-05-31T02:37:48;7.40;99.90
51579;DHT22;47998;53.242;6.386;2023-05-31T02:40:13;7.40;99.90
51579;DHT22;47998;53.242;6.386;2023-05-31T02:42:41;7.40;99.90
51579;DHT22;47998;53.242;6.386;2023-05-31T02:45:08;7.40;99.90
51579;DHT22;47998;53.242;6.386;2023-05-31T02:47:36;7.50;99.90
51579;DHT22;47998;53.242;6.386;2023-05-31T02:50:06;7.50;99.90
51579;DHT22;47998;53.242;6.386;2023-05-31T02:52:36;7.70;99.90
51579;DHT22;47998;53.242;6.386;2023-05-31T02:55:03;7.80;99.90
51579;DHT22;47998;53.242;6.386;2023-05-31T02:57:29;7.90;99.90
51579;DHT22;47998;53.242;6.386;2023-05-31T02:59:57;7.90;99.90
51579;DHT22;47998;53.242;6.386;2023-05-31T03:02:22;7.90;99.90
51579;DHT22;47998;53.242;6.386;2023-05-31T03:04:49;7.90;99.90
51579;DHT22;47998;53.242;6.386;2023-05-31T03:07:16;7.80;99.90
51579;DHT22;47998;53.242;6.386;2023-05-31T03:09:42;7.60;99.90
51579;DHT22;47998;53.242;6.386;2023-05-31T03:12:08;7.30;99.90
51579;DHT22;47998;53.242;6.386;2023-05-31T03:14:35;7.10;99.90
51579;DHT22;47998;53.242;6.386;2023-05-31T03:17:02;6.80;99.90
51579;DHT22;47998;53.242;6.386;2023-05-31T03:19:28;6.60;99.90
51579;DHT22;47998;53.242;6.386;2023-05-31T03:21:54;6.30;99.90
51579;DHT22;47998;53.242;6.386;2023-05-31T03:24:20;6.20;99.90
51579;DHT22;47998;53.242;6.386;2023-05-31T03:26:46;6.10;99.90
51579;DHT22;47998;53.242;6.386;2023-05-31T03:29:11;6.00;99.90
51579;DHT22;47998;53.242;6.386;2023-05-31T03:31:37;5.90;99.90
51579;DHT22;47998;53.242;6.386;2023-05-31T03:34:03;5.80;99.90
51579;DHT22;47998;53.242;6.386;2023-05-31T03:36:28;5.80;99.90
51579;DHT22;47998;53.242;6.386;2023-05-31T03:38:54;5.60;99.90
51579;DHT22;47998;53.242;6.386;2023-05-31T03:41:20;5.50;99.90
51579;DHT22;47998;53.242;6.386;2023-05-31T03:43:46;5.50;99.90
51579;DHT22;47998;53.242;6.386;2023-05-31T03:46:12;5.40;99.90
51579;DHT22;47998;53.242;6.386;2023-05-31T03:48:37;5.50;99.90
51579;DHT22;47998;53.242;6.386;2023-05-31T03:51:03;5.50;99.90
51579;DHT22;47998;53.242;6.386;2023-05-31T03:53:29;5.50;99.90
51579;DHT22;47998;53.242;6.386;2023-05-31T03:55:55;5.50;99.90
51579;DHT22;47998;53.242;6.386;2023-05-31T03:58:20;5.70;99.90
51579;DHT22;47998;53.242;6.386;2023-05-31T04:00:46;5.60;99.90
51579;DHT22;47998;53.242;6.386;2023-05-31T04:03:12;5.60;99.90
51579;DHT22;47998;53.242;6.386;2023-05-31T04:05:39;5.60;99.90
51579;DHT22;47998;53.242;6.386;2023-05-31T04:08:04;5.50;99.90
51579;DHT22;47998;53.242;6.386;2023-05-31T04:10:31;5.60;99.90
51579;DHT22;47998;53.242;6.386;2023-05-31T04:12:56;5.60;99.90
51579;DHT22;47998;53.242;6.386;2023-05-31T04:15:22;5.70;99.90
51579;DHT22;47998;53.242;6.386;2023-05-31T04:17:48;5.70;99.90
51579;DHT22;47998;53.242;6.386;2023-05-31T04:20:14;5.90;99.90
51579;DHT22;47998;53.242;6.386;2023-05-31T04:22:39;6.00;99.90
51579;DHT22;47998;53.242;6.386;2023-05-31T04:25:06;6.30;99.90
51579;DHT22;47998;53.242;6.386;2023-05-31T04:27:31;6.50;99.90
51579;DHT22;47998;53.242;6.386;2023-05-31T04:29:57;6.70;99.90
51579;DHT22;47998;53.242;6.386;2023-05-31T04:32:26;6.90;99.90
51579;DHT22;47998;53.242;6.386;2023-05-31T04:34:53;7.20;99.90
51579;DHT22;47998;53.242;6.386;2023-05-31T04:37:26;7.30;99.90
51579;DHT22;47998;53.242;6.386;2023-05-31T04:39:54;7.60;99.90
51579;DHT22;47998;53.242;6.386;2023-05-31T04:42:20;7.80;99.90
51579;DHT22;47998;53.242;6.386;2023-05-31T04:44:46;8.00;99.90
51579;DHT22;47998;53.242;6.386;2023-05-31T04:47:12;8.20;99.90
51579;DHT22;47998;53.242;6.386;2023-05-31T04:49:40;8.50;99.90
51579;DHT22;47998;53.242;6.386;2023-05-31T04:52:07;8.70;99.90
51579;DHT22;47998;53.242;6.386;2023-05-31T04:54:35;8.90;99.90
51579;DHT22;47998;53.242;6.386;2023-05-31T04:57:01;9.10;99.90
51579;DHT22;47998;53.242;6.386;2023-05-31T04:59:26;9.30;99.90
51579;DHT22;47998;53.242;6.386;2023-05-31T05:01:52;9.60;99.90
51579;DHT22;47998;53.242;6.386;2023-05-31T05:04:18;9.70;99.90
51579;DHT22;47998;53.242;6.386;2023-05-31T05:06:43;9.90;99.90
51579;DHT22;47998;53.242;6.386;2023-05-31T05:09:09;10.40;99.90
51579;DHT22;47998;53.242;6.386;2023-05-31T05:11:35;11.10;99.90
51579;DHT22;47998;53.242;6.386;2023-05-31T05:14:02;11.80;99.90
51579;DHT22;47998;53.242;6.386;2023-05-31T05:16:27;12.40;99.90
51579;DHT22;47998;53.242;6.386;2023-05-31T05:18:53;12.80;99.90
51579;DHT22;47998;53.242;6.386;2023-05-31T05:23:45;13.90;99.90
51579;DHT22;47998;53.242;6.386;2023-05-31T05:26:11;14.30;99.90
51579;DHT22;47998;53.242;6.386;2023-05-31T05:28:37;14.70;99.90
51579;DHT22;47998;53.242;6.386;2023-05-31T05:31:03;15.60;99.90
51579;DHT22;47998;53.242;6.386;2023-05-31T05:33:29;16.00;99.90
51579;DHT22;47998;53.242;6.386;2023-05-31T05:35:56;16.30;99.90
51579;DHT22;47998;53.242;6.386;2023-05-31T05:38:21;16.80;99.90
51579;DHT22;47998;53.242;6.386;2023-05-31T05:40:47;17.30;99.90
51579;DHT22;47998;53.242;6.386;2023-05-31T05:43:13;16.70;99.90
51579;DHT22;47998;53.242;6.386;2023-05-31T05:45:39;17.10;99.90
51579;DHT22;47998;53.242;6.386;2023-05-31T05:48:05;17.20;52.80
51579;DHT22;47998;53.242;6.386;2023-05-31T05:50:31;17.20;1.00
51579;DHT22;47998;53.242;6.386;2023-05-31T05:52:56;17.30;99.90
51579;DHT22;47998;53.242;6.386;2023-05-31T05:55:22;17.50;1.00
51579;DHT22;47998;53.242;6.386;2023-05-31T05:57:48;17.50;99.90
51579;DHT22;47998;53.242;6.386;2023-05-31T06:00:14;17.40;99.90
51579;DHT22;47998;53.242;6.386;2023-05-31T06:02:41;17.10;99.90
51579;DHT22;47998;53.242;6.386;2023-05-31T06:05:07;17.00;99.90
51579;DHT22;47998;53.242;6.386;2023-05-31T06:07:33;17.20;99.90
51579;DHT22;47998;53.242;6.386;2023-05-31T06:09:59;17.60;99.90
51579;DHT22;47998;53.242;6.386;2023-05-31T06:12:29;18.30;59.50
51579;DHT22;47998;53.242;6.386;2023-05-31T06:14:55;18.40;1.00
51579;DHT22;47998;53.242;6.386;2023-05-31T06:17:21;18.80;99.90
51579;DHT22;47998;53.242;6.386;2023-05-31T06:19:47;18.50;99.90
51579;DHT22;47998;53.242;6.386;2023-05-31T06:22:13;19.10;99.90
51579;DHT22;47998;53.242;6.386;2023-05-31T06:24:40;19.20;99.90
51579;DHT22;47998;53.242;6.386;2023-05-31T06:27:07;19.30;99.90
51579;DHT22;47998;53.242;6.386;2023-05-31T06:29:32;19.40;1.00
51579;DHT22;47998;53.242;6.386;2023-05-31T06:31:58;19.40;99.90
51579;DHT22;47998;53.242;6.386;2023-05-31T06:34:24;19.40;99.90
51579;DHT22;47998;53.242;6.386;2023-05-31T06:36:49;19.30;99.90
51579;DHT22;47998;53.242;6.386;2023-05-31T06:39:15;19.40;99.90
51579;DHT22;47998;53.242;6.386;2023-05-31T06:41:41;19.60;99.90
51579;DHT22;47998;53.242;6.386;2023-05-31T06:44:07;19.40;1.00
51579;DHT22;47998;53.242;6.386;2023-05-31T06:46:32;19.50;1.00
51579;DHT22;47998;53.242;6.386;2023-05-31T06:48:58;19.70;1.00
51579;DHT22;47998;53.242;6.386;2023-05-31T06:51:24;20.00;99.90
51579;DHT22;47998;53.242;6.386;2023-05-31T06:53:50;20.20;99.90
51579;DHT22;47998;53.242;6.386;2023-05-31T06:56:15;20.30;66.70
51579;DHT22;47998;53.242;6.386;2023-05-31T06:58:42;20.30;10.10
51579;DHT22;47998;53.242;6.386;2023-05-31T07:01:08;20.30;1.00
51579;DHT22;47998;53.242;6.386;2023-05-31T07:03:34;20.40;1.00
51579;DHT22;47998;53.242;6.386;2023-05-31T07:06:00;20.70;1.00
51579;DHT22;47998;53.242;6.386;2023-05-31T07:08:26;20.70;99.90
51579;DHT22;47998;53.242;6.386;2023-05-31T07:10:53;20.80;99.90
51579;DHT22;47998;53.242;6.386;2023-05-31T07:13:18;20.80;99.90
51579;DHT22;47998;53.242;6.386;2023-05-31T07:15:44;20.80;99.90
51579;DHT22;47998;53.242;6.386;2023-05-31T07:18:10;20.70;99.90
51579;DHT22;47998;53.242;6.386;2023-05-31T07:20:35;20.90;99.90
51579;DHT22;47998;53.242;6.386;2023-05-31T07:23:01;21.10;99.90
51579;DHT22;47998;53.242;6.386;2023-05-31T07:25:27;21.20;1.00
51579;DHT22;47998;53.242;6.386;2023-05-31T07:27:53;21.30;28.80
51579;DHT22;47998;53.242;6.386;2023-05-31T07:30:19;21.30;1.00
51579;DHT22;47998;53.242;6.386;2023-05-31T07:32:45;21.20;1.00
51579;DHT22;47998;53.242;6.386;2023-05-31T07:35:11;21.40;1.00
51579;DHT22;47998;53.242;6.386;2023-05-31T07:37:37;21.70;1.00
51579;DHT22;47998;53.242;6.386;2023-05-31T07:40:03;21.60;1.00
51579;DHT22;47998;53.242;6.386;2023-05-31T07:42:32;21.60;99.90
51579;DHT22;47998;53.242;6.386;2023-05-31T07:44:59;21.60;99.90
51579;DHT22;47998;53.242;6.386;2023-05-31T07:47:24;21.70;99.90
51579;DHT22;47998;53.242;6.386;2023-05-31T07:49:50;21.80;99.90
51579;DHT22;47998;53.242;6.386;2023-05-31T07:52:17;21.70;99.90
51579;DHT22;47998;53.242;6.386;2023-05-31T07:54:49;21.80;99.90
51579;DHT22;47998;53.242;6.386;2023-05-31T07:57:16;22.10;99.90
51579;DHT22;47998;53.242;6.386;2023-05-31T07:59:41;22.30;99.90
51579;DHT22;47998;53.242;6.386;2023-05-31T08:02:07;22.30;99.90
51579;DHT22;47998;53.242;6.386;2023-05-31T08:04:33;21.10;99.90
51579;DHT22;47998;53.242;6.386;2023-05-31T08:06:58;21.10;1.00
51579;DHT22;47998;53.242;6.386;2023-05-31T08:09:24;21.30;99.90
51579;DHT22;47998;53.242;6.386;2023-05-31T08:11:52;21.80;99.90
51579;DHT22;47998;53.242;6.386;2023-05-31T08:14:18;21.60;99.90
51579;DHT22;47998;53.242;6.386;2023-05-31T08:16:43;22.20;99.90
51579;DHT22;47998;53.242;6.386;2023-05-31T08:19:10;23.00;99.90
51579;DHT22;47998;53.242;6.386;2023-05-31T08:21:36;23.20;10.50
51579;DHT22;47998;53.242;6.386;2023-05-31T08:24:04;23.10;2.70
51579;DHT22;47998;53.242;6.386;2023-05-31T08:26:32;22.70;23.10
51579;DHT22;47998;53.242;6.386;2023-05-31T08:28:58;23.10;1.00
51579;DHT22;47998;53.242;6.386;2023-05-31T08:31:24;22.90;88.60
51579;DHT22;47998;53.242;6.386;2023-05-31T08:33:57;22.80;1.00
51579;DHT22;47998;53.242;6.386;2023-05-31T08:36:24;21.90;54.20
51579;DHT22;47998;53.242;6.386;2023-05-31T08:38:51;21.90;99.90
51579;DHT22;47998;53.242;6.386;2023-05-31T08:41:20;22.00;99.90
51579;DHT22;47998;53.242;6.386;2023-05-31T08:43:47;22.20;1.00
51579;DHT22;47998;53.242;6.386;2023-05-31T08:46:15;21.80;98.40
51579;DHT22;47998;53.242;6.386;2023-05-31T08:48:56;22.20;99.90
51579;DHT22;47998;53.242;6.386;2023-05-31T08:51:26;22.30;1.00
51579;DHT22;47998;53.242;6.386;2023-05-31T08:53:52;21.70;1.00
51579;DHT22;47998;53.242;6.386;2023-05-31T08:56:20;21.90;99.90
51579;DHT22;47998;53.242;6.386;2023-05-31T08:58:49;22.10;32.30
51579;DHT22;47998;53.242;6.386;2023-05-31T09:01:16;21.90;46.00
51579;DHT22;47998;53.242;6.386;2023-05-31T09:03:42;21.50;99.90
51579;DHT22;47998;53.242;6.386;2023-05-31T09:06:08;21.60;99.90
51579;DHT22;47998;53.242;6.386;2023-05-31T09:08:34;21.80;99.90
51579;DHT22;47998;53.242;6.386;2023-05-31T09:11:01;21.80;99.80
51579;DHT22;47998;53.242;6.386;2023-05-31T09:13:27;21.90;1.00
51579;DHT22;47998;53.242;6.386;2023-05-31T09:15:54;21.60;63.60
51579;DHT22;47998;53.242;6.386;2023-05-31T09:18:21;21.00;99.20
51579;DHT22;47998;53.242;6.386;2023-05-31T09:20:48;20.40;99.90
51579;DHT22;47998;53.242;6.386;2023-05-31T09:23:14;20.00;99.90
51579;DHT22;47998;53.242;6.386;2023-05-31T09:25:45;20.40;99.90
51579;DHT22;47998;53.242;6.386;2023-05-31T09:28:12;20.90;99.90
51579;DHT22;47998;53.242;6.386;2023-05-31T09:30:37;20.40;99.90
51579;DHT22;47998;53.242;6.386;2023-05-31T09:33:03;20.60;99.90
51579;DHT22;47998;53.242;6.386;2023-05-31T09:35:29;20.40;99.90
51579;DHT22;47998;53.242;6.386;2023-05-31T09:37:55;20.70;99.90
51579;DHT22;47998;53.242;6.386;2023-05-31T09:40:26;20.70;99.90
51579;DHT22;47998;53.242;6.386;2023-05-31T09:42:53;20.90;1.00
51579;DHT22;47998;53.242;6.386;2023-05-31T09:45:19;20.10;78.30
51579;DHT22;47998;53.242;6.386;2023-05-31T09:47:46;20.40;99.90
51579;DHT22;47998;53.242;6.386;2023-05-31T09:50:20;20.80;99.90
51579;DHT22;47998;53.242;6.386;2023-05-31T09:53:04;21.00;1.00
51579;DHT22;47998;53.242;6.386;2023-05-31T09:55:39;21.30;99.90
51579;DHT22;47998;53.242;6.386;2023-05-31T09:58:08;21.50;99.90
51579;DHT22;47998;53.242;6.386;2023-05-31T10:00:34;21.40;99.90
51579;DHT22;47998;53.242;6.386;2023-05-31T10:03:00;21.50;99.90
51579;DHT22;47998;53.242;6.386;2023-05-31T10:05:27;21.70;99.90
51579;DHT22;47998;53.242;6.386;2023-05-31T10:07:53;22.00;99.90
51579;DHT22;47998;53.242;6.386;2023-05-31T10:10:19;22.10;99.90
51579;DHT22;47998;53.242;6.386;2023-05-31T10:12:57;22.10;99.90
51579;DHT22;47998;53.242;6.386;2023-05-31T10:15:24;22.50;99.90
51579;DHT22;47998;53.242;6.386;2023-05-31T10:18:16;22.40;99.90
51579;DHT22;47998;53.242;6.386;2023-05-31T10:20:44;22.50;99.90
51579;DHT22;47998;53.242;6.386;2023-05-31T10:23:22;22.60;41.80
51579;DHT22;47998;53.242;6.386;2023-05-31T10:31:13;22.10;99.90
51579;DHT22;47998;53.242;6.386;2023-05-31T10:33:47;22.30;99.90
51579;DHT22;47998;53.242;6.386;2023-05-31T10:36:14;22.20;33.30
51579;DHT22;47998;53.242;6.386;2023-05-31T10:38:48;22.20;99.90
51579;DHT22;47998;53.242;6.386;2023-05-31T10:41:18;22.40;99.90
51579;DHT22;47998;53.242;6.386;2023-05-31T10:43:54;22.60;94.20
51579;DHT22;47998;53.242;6.386;2023-05-31T10:46:25;22.60;56.20
51579;DHT22;47998;53.242;6.386;2023-05-31T10:48:55;22.40;99.90
51579;DHT22;47998;53.242;6.386;2023-05-31T10:51:42;22.40;98.70
51579;DHT22;47998;53.242;6.386;2023-05-31T10:54:20;22.40;1.90
51579;DHT22;47998;53.242;6.386;2023-05-31T10:56:56;22.70;80.20
51579;DHT22;47998;53.242;6.386;2023-05-31T10:59:26;23.20;67.00
51579;DHT22;47998;53.242;6.386;2023-05-31T11:01:52;23.40;1.00
51579;DHT22;47998;53.242;6.386;2023-05-31T11:04:22;23.30;1.00
51579;DHT22;47998;53.242;6.386;2023-05-31T11:06:54;23.60;1.00
51579;DHT22;47998;53.242;6.386;2023-05-31T11:09:21;23.60;1.00
51579;DHT22;47998;53.242;6.386;2023-05-31T11:11:49;23.40;1.00
51579;DHT22;47998;53.242;6.386;2023-05-31T11:19:30;23.30;1.00
51579;DHT22;47998;53.242;6.386;2023-05-31T11:22:15;23.40;1.00
51579;DHT22;47998;53.242;6.386;2023-05-31T11:27:15;22.70;1.00
51579;DHT22;47998;53.242;6.386;2023-05-31T11:32:14;22.80;1.00
51579;DHT22;47998;53.242;6.386;2023-05-31T11:34:58;23.00;1.00
51579;DHT22;47998;53.242;6.386;2023-05-31T11:37:30;23.00;1.00
51579;DHT22;47998;53.242;6.386;2023-05-31T11:40:03;22.90;1.00
51579;DHT22;47998;53.242;6.386;2023-05-31T11:42:34;22.60;1.00
51579;DHT22;47998;53.242;6.386;2023-05-31T11:45:05;22.80;1.00
51579;DHT22;47998;53.242;6.386;2023-05-31T11:47:53;23.10;1.00
51579;DHT22;47998;53.242;6.386;2023-05-31T11:50:24;22.80;1.00
51579;DHT22;47998;53.242;6.386;2023-05-31T11:52:50;23.20;1.00
51579;DHT22;47998;53.242;6.386;2023-05-31T11:55:16;23.20;1.00
51579;DHT22;47998;53.242;6.386;2023-05-31T11:57:45;23.30;1.00
51579;DHT22;47998;53.242;6.386;2023-05-31T12:00:12;23.50;1.00
51579;DHT22;47998;53.242;6.386;2023-05-31T12:02:39;23.40;1.00
51579;DHT22;47998;53.242;6.386;2023-05-31T12:05:05;23.20;99.90
51579;DHT22;47998;53.242;6.386;2023-05-31T12:07:31;23.20;1.00
51579;DHT22;47998;53.242;6.386;2023-05-31T12:09:58;23.30;1.00
51579;DHT22;47998;53.242;6.386;2023-05-31T12:12:23;23.50;1.00
51579;DHT22;47998;53.242;6.386;2023-05-31T12:14:50;23.40;1.00
51579;DHT22;47998;53.242;6.386;2023-05-31T12:17:16;23.80;1.00
51579;DHT22;47998;53.242;6.386;2023-05-31T12:19:42;23.50;1.00
51579;DHT22;47998;53.242;6.386;2023-05-31T12:22:08;22.90;1.00
51579;DHT22;47998;53.242;6.386;2023-05-31T12:24:36;23.30;99.90
51579;DHT22;47998;53.242;6.386;2023-05-31T12:27:02;23.20;99.90
51579;DHT22;47998;53.242;6.386;2023-05-31T12:29:30;23.10;99.90
51579;DHT22;47998;53.242;6.386;2023-05-31T12:32:05;23.00;99.90
51579;DHT22;47998;53.242;6.386;2023-05-31T12:34:36;23.00;99.90
51579;DHT22;47998;53.242;6.386;2023-05-31T12:37:07;23.20;99.90
51579;DHT22;47998;53.242;6.386;2023-05-31T12:39:33;22.90;99.90
51579;DHT22;47998;53.242;6.386;2023-05-31T12:42:00;22.60;1.00
51579;DHT22;47998;53.242;6.386;2023-05-31T12:44:27;22.60;99.90
51579;DHT22;47998;53.242;6.386;2023-05-31T12:47:11;22.60;1.00
51579;DHT22;47998;53.242;6.386;2023-05-31T12:49:37;22.50;1.00
51579;DHT22;47998;53.242;6.386;2023-05-31T12:52:07;22.60;1.00
51579;DHT22;47998;53.242;6.386;2023-05-31T12:54:38;22.20;1.00
51579;DHT22;47998;53.242;6.386;2023-05-31T12:57:06;22.20;1.00
51579;DHT22;47998;53.242;6.386;2023-05-31T12:59:33;22.50;1.00
51579;DHT22;47998;53.242;6.386;2023-05-31T13:02:00;22.50;1.00
51579;DHT22;47998;53.242;6.386;2023-05-31T13:04:26;22.80;1.00
51579;DHT22;47998;53.242;6.386;2023-05-31T13:06:53;22.40;1.00
51579;DHT22;47998;53.242;6.386;2023-05-31T13:09:20;22.40;1.00
51579;DHT22;47998;53.242;6.386;2023-05-31T13:11:46;22.60;1.00
51579;DHT22;47998;53.242;6.386;2023-05-31T13:14:15;22.60;1.00
51579;DHT22;47998;53.242;6.386;2023-05-31T13:16:41;22.60;1.00
51579;DHT22;47998;53.242;6.386;2023-05-31T13:19:08;22.60;1.00
51579;DHT22;47998;53.242;6.386;2023-05-31T13:21:35;22.60;1.00
51579;DHT22;47998;53.242;6.386;2023-05-31T13:24:02;22.40;1.00
51579;DHT22;47998;53.242;6.386;2023-05-31T13:26:28;22.10;1.00
51579;DHT22;47998;53.242;6.386;2023-05-31T13:28:55;21.80;1.00
51579;DHT22;47998;53.242;6.386;2023-05-31T13:31:22;21.60;1.00
51579;DHT22;47998;53.242;6.386;2023-05-31T13:33:48;21.60;1.00
51579;DHT22;47998;53.242;6.386;2023-05-31T13:36:15;21.60;1.00
51579;DHT22;47998;53.242;6.386;2023-05-31T13:38:41;21.40;1.00
51579;DHT22;47998;53.242;6.386;2023-05-31T13:41:07;21.20;1.00
51579;DHT22;47998;53.242;6.386;2023-05-31T13:43:33;21.20;1.00
51579;DHT22;47998;53.242;6.386;2023-05-31T13:45:59;21.00;1.00
51579;DHT22;47998;53.242;6.386;2023-05-31T13:48:26;21.20;10.30
51579;DHT22;47998;53.242;6.386;2023-05-31T13:50:52;21.20;40.30
51579;DHT22;47998;53.242;6.386;2023-05-31T13:53:21;21.20;1.00
51579;DHT22;47998;53.242;6.386;2023-05-31T13:55:47;21.10;80.10
51579;DHT22;47998;53.242;6.386;2023-05-31T13:58:13;21.20;99.90
51579;DHT22;47998;53.242;6.386;2023-05-31T14:00:40;21.40;99.90
51579;DHT22;47998;53.242;6.386;2023-05-31T14:03:06;21.40;19.40
51579;DHT22;47998;53.242;6.386;2023-05-31T14:05:32;21.60;3.50
51579;DHT22;47998;53.242;6.386;2023-05-31T14:07:58;21.40;1.00
51579;DHT22;47998;53.242;6.386;2023-05-31T14:10:25;21.40;39.20
51579;DHT22;47998;53.242;6.386;2023-05-31T14:12:51;21.30;69.80
51579;DHT22;47998;53.242;6.386;2023-05-31T14:15:17;21.30;26.00
51579;DHT22;47998;53.242;6.386;2023-05-31T14:17:43;21.30;8.20
51579;DHT22;47998;53.242;6.386;2023-05-31T14:20:09;21.60;98.40
51579;DHT22;47998;53.242;6.386;2023-05-31T14:22:35;21.40;18.90
51579;DHT22;47998;53.242;6.386;2023-05-31T14:25:01;21.40;12.50
51579;DHT22;47998;53.242;6.386;2023-05-31T14:27:27;21.30;11.80
51579;DHT22;47998;53.242;6.386;2023-05-31T14:29:52;21.60;37.20
51579;DHT22;47998;53.242;6.386;2023-05-31T14:32:18;21.60;1.00
51579;DHT22;47998;53.242;6.386;2023-05-31T14:34:44;21.40;1.00
51579;DHT22;47998;53.242;6.386;2023-05-31T14:37:11;21.00;95.40
51579;DHT22;47998;53.242;6.386;2023-05-31T14:39:39;21.50;94.70
51579;DHT22;47998;53.242;6.386;2023-05-31T14:42:05;21.30;1.00
51579;DHT22;47998;53.242;6.386;2023-05-31T14:44:32;20.90;99.90
51579;DHT22;47998;53.242;6.386;2023-05-31T14:46:57;21.10;99.90
51579;DHT22;47998;53.242;6.386;2023-05-31T14:49:23;21.30;99.90
51579;DHT22;47998;53.242;6.386;2023-05-31T14:51:49;21.40;83.90
51579;DHT22;47998;53.242;6.386;2023-05-31T14:54:18;21.40;68.00
51579;DHT22;47998;53.242;6.386;2023-05-31T14:56:45;21.50;46.70
51579;DHT22;47998;53.242;6.386;2023-05-31T14:59:11;21.90;24.90
51579;DHT22;47998;53.242;6.386;2023-05-31T15:01:38;22.40;60.70
51579;DHT22;47998;53.242;6.386;2023-05-31T15:04:14;22.30;11.80
51579;DHT22;47998;53.242;6.386;2023-05-31T15:06:41;22.10;1.00
51579;DHT22;47998;53.242;6.386;2023-05-31T15:09:07;21.30;1.00
51579;DHT22;47998;53.242;6.386;2023-05-31T15:11:34;21.60;56.70
51579;DHT22;47998;53.242;6.386;2023-05-31T15:14:00;21.70;48.20
51579;DHT22;47998;53.242;6.386;2023-05-31T15:16:26;22.00;1.00
51579;DHT22;47998;53.242;6.386;2023-05-31T15:18:52;22.00;1.00
51579;DHT22;47998;53.242;6.386;2023-05-31T15:21:18;21.30;1.00
51579;DHT22;47998;53.242;6.386;2023-05-31T15:23:45;21.30;1.00
51579;DHT22;47998;53.242;6.386;2023-05-31T15:26:11;20.80;1.00
51579;DHT22;47998;53.242;6.386;2023-05-31T15:28:36;20.50;1.00
51579;DHT22;47998;53.242;6.386;2023-05-31T15:31:02;20.50;78.50
51579;DHT22;47998;53.242;6.386;2023-05-31T15:33:30;20.30;71.10
51579;DHT22;47998;53.242;6.386;2023-05-31T15:35:58;20.20;99.90
51579;DHT22;47998;53.242;6.386;2023-05-31T15:38:24;20.40;99.90
51579;DHT22;47998;53.242;6.386;2023-05-31T15:40:51;20.30;99.90
51579;DHT22;47998;53.242;6.386;2023-05-31T15:43:17;20.80;99.90
51579;DHT22;47998;53.242;6.386;2023-05-31T15:45:43;20.80;20.80
51579;DHT22;47998;53.242;6.386;2023-05-31T15:48:09;20.40;1.00
51579;DHT22;47998;53.242;6.386;2023-05-31T15:50:34;20.20;41.10
51579;DHT22;47998;53.242;6.386;2023-05-31T15:53:00;20.30;25.30
51579;DHT22;47998;53.242;6.386;2023-05-31T15:55:26;20.40;38.80
51579;DHT22;47998;53.242;6.386;2023-05-31T15:57:55;20.00;51.00